createdAt,value
2022-11-17T00:02:16.910Z,10.06
2022-11-17T00:04:44.932Z,9.95
2022-11-17T00:07:11.484Z,9.99
2022-11-17T00:09:38.049Z,10.08
2022-11-17T00:12:24.639Z,10.06
2022-11-17T00:14:53.712Z,9.96
2022-11-17T00:17:20.213Z,10.06
2022-11-17T00:20:05.161Z,10.09
2022-11-17T00:22:32.479Z,10.02
2022-11-17T00:24:59.312Z,9.96
2022-11-17T00:27:25.835Z,9.89
2022-11-17T00:29:52.450Z,10.00
2022-11-17T00:32:38.514Z,9.89
2022-11-17T00:35:06.765Z,10.00
2022-11-17T00:37:38.947Z,9.87
2022-11-17T00:40:06.427Z,9.77
2022-11-17T00:42:32.930Z,9.91
2022-11-17T00:44:59.405Z,10.07
2022-11-17T00:47:25.896Z,10.15
2022-11-17T00:49:52.425Z,10.09
2022-11-17T00:52:18.898Z,9.96
2022-11-17T00:54:45.393Z,9.75
2022-11-17T00:57:11.879Z,9.76
2022-11-17T00:59:38.404Z,9.94
2022-11-17T01:02:04.896Z,9.86
2022-11-17T01:04:31.425Z,10.00
2022-11-17T01:06:58.028Z,9.96
2022-11-17T01:09:27.090Z,10.02
2022-11-17T01:11:53.954Z,10.04
2022-11-17T01:14:23.726Z,10.07
2022-11-17T01:16:50.626Z,10.03
2022-11-17T01:19:18.438Z,10.13
2022-11-17T01:21:45.438Z,10.07
2022-11-17T01:24:13.532Z,9.99
2022-11-17T01:26:41.101Z,10.15
2022-11-17T01:29:08.907Z,10.17
2022-11-17T01:31:38.475Z,10.48
2022-11-17T01:34:06.145Z,10.46
2022-11-17T01:37:11.270Z,10.42
2022-11-17T01:39:37.803Z,10.39
2022-11-17T01:42:13.064Z,10.40
2022-11-17T01:44:57.997Z,10.47
2022-11-17T01:47:39.769Z,10.44
2022-11-17T01:50:20.285Z,10.49
2022-11-17T01:52:50.419Z,10.61
2022-11-17T01:55:19.436Z,10.55
2022-11-17T01:57:51.062Z,10.61
2022-11-17T02:00:18.102Z,10.45
2022-11-17T02:02:45.620Z,10.43
2022-11-17T02:05:45.415Z,10.38
2022-11-17T02:08:12.827Z,10.37
2022-11-17T02:10:40.083Z,10.38
2022-11-17T02:13:08.338Z,10.46
2022-11-17T02:15:34.993Z,10.36
2022-11-17T02:18:02.460Z,10.47
2022-11-17T02:20:47.309Z,10.37
2022-11-17T02:23:35.991Z,10.35
2022-11-17T02:26:53.378Z,10.42
2022-11-17T02:29:37.101Z,10.46
2022-11-17T02:32:22.087Z,10.45
2022-11-17T02:35:10.805Z,10.58
2022-11-17T02:37:44.344Z,10.72
2022-11-17T02:40:18.783Z,10.92
2022-11-17T02:43:10.649Z,11.17
2022-11-17T02:45:43.093Z,11.29
2022-11-17T02:48:16.147Z,11.45
2022-11-17T02:50:46.772Z,11.37
2022-11-17T02:53:14.838Z,11.19
2022-11-17T02:55:41.389Z,11.05
2022-11-17T02:58:12.235Z,10.88
2022-11-17T03:00:58.110Z,10.83
2022-11-17T03:03:39.996Z,10.72
2022-11-17T03:06:36.095Z,10.64
2022-11-17T03:09:08.819Z,10.55
2022-11-17T03:11:48.118Z,10.47
2022-11-17T03:14:38.798Z,10.54
2022-11-17T03:17:22.011Z,10.73
2022-11-17T03:20:03.674Z,10.80
2022-11-17T03:22:51.835Z,10.90
2022-11-17T03:25:23.240Z,10.83
2022-11-17T03:27:54.084Z,10.85
2022-11-17T03:30:23.108Z,10.91
2022-11-17T03:32:54.541Z,10.87
2022-11-17T03:35:25.514Z,10.95
2022-11-17T03:37:56.529Z,11.00
2022-11-17T03:40:28.123Z,11.05
2022-11-17T03:42:59.065Z,11.24
2022-11-17T03:45:29.360Z,11.34
2022-11-17T03:48:24.658Z,11.65
2022-11-17T03:50:55.329Z,11.79
2022-11-17T03:53:22.338Z,11.91
2022-11-17T03:56:22.847Z,12.01
2022-11-17T03:59:03.119Z,12.02
2022-11-17T04:01:32.350Z,12.07
2022-11-17T04:03:59.088Z,12.01
2022-11-17T04:06:25.726Z,11.98
2022-11-17T04:08:52.235Z,11.85
2022-11-17T04:11:37.301Z,11.79
2022-11-17T04:14:22.677Z,11.70
2022-11-17T04:16:49.143Z,11.74
2022-11-17T04:19:15.659Z,12.00
2022-11-17T04:21:42.203Z,12.28
2022-11-17T04:24:08.908Z,12.47
2022-11-17T04:26:54.049Z,12.64
2022-11-17T04:29:20.590Z,12.74
2022-11-17T04:31:47.171Z,12.73
2022-11-17T04:34:13.754Z,12.71
2022-11-17T04:36:44.636Z,12.71
2022-11-17T04:39:13.421Z,12.63
2022-11-17T04:41:57.588Z,12.29
2022-11-17T04:44:26.556Z,12.02
2022-11-17T04:46:54.328Z,11.86
2022-11-17T04:49:23.044Z,11.75
2022-11-17T04:51:50.449Z,11.78
2022-11-17T04:54:19.487Z,11.64
2022-11-17T04:56:48.052Z,11.68
2022-11-17T04:59:14.890Z,11.70
2022-11-17T05:01:41.598Z,11.62
2022-11-17T05:04:10.202Z,11.65
2022-11-17T05:06:39.763Z,11.64
2022-11-17T05:09:08.894Z,11.66
2022-11-17T05:11:53.842Z,11.64
2022-11-17T05:14:22.694Z,11.70
2022-11-17T05:17:10.787Z,11.77
2022-11-17T05:19:48.255Z,11.76
2022-11-17T05:22:36.748Z,11.74
2022-11-17T05:25:04.865Z,11.75
2022-11-17T05:27:31.562Z,11.71
2022-11-17T05:29:58.103Z,11.72
2022-11-17T05:32:24.943Z,11.71
2022-11-17T05:34:51.592Z,11.71
2022-11-17T05:37:18.459Z,11.66
2022-11-17T05:39:45.138Z,11.71
2022-11-17T05:42:11.615Z,11.75
2022-11-17T05:44:38.225Z,11.77
2022-11-17T05:47:04.815Z,11.82
2022-11-17T05:49:31.323Z,11.77
2022-11-17T05:51:57.815Z,11.70
2022-11-17T05:54:24.456Z,11.66
2022-11-17T05:56:53.304Z,11.59
2022-11-17T05:59:30.026Z,11.74
2022-11-17T06:02:32.069Z,11.81
2022-11-17T06:04:58.566Z,11.70
2022-11-17T06:07:25.151Z,11.61
2022-11-17T06:09:52.236Z,11.72
2022-11-17T06:12:19.021Z,11.80
2022-11-17T06:14:45.550Z,11.66
2022-11-17T06:17:23.096Z,11.51
2022-11-17T06:20:05.721Z,11.46
2022-11-17T06:22:32.758Z,11.43
2022-11-17T06:25:01.946Z,11.37
2022-11-17T06:27:30.811Z,11.46
2022-11-17T06:30:01.756Z,11.39
2022-11-17T06:32:28.472Z,11.41
2022-11-17T06:34:56.455Z,11.38
2022-11-17T06:37:24.935Z,11.35
2022-11-17T06:39:51.539Z,11.32
2022-11-17T06:42:18.042Z,11.29
2022-11-17T06:44:44.545Z,11.30
2022-11-17T06:47:11.059Z,11.38
2022-11-17T06:49:37.588Z,11.46
2022-11-17T06:52:04.119Z,11.41
2022-11-17T06:54:30.674Z,11.55
2022-11-17T06:56:57.191Z,11.50
2022-11-17T06:59:23.696Z,11.48
2022-11-17T07:01:50.205Z,11.39
2022-11-17T07:04:16.761Z,11.28
2022-11-17T07:06:43.242Z,11.43
2022-11-17T07:09:09.858Z,11.40
2022-11-17T07:11:36.482Z,11.58
2022-11-17T07:14:03.301Z,11.61
2022-11-17T07:16:30.772Z,11.59
2022-11-17T07:18:59.263Z,11.64
2022-11-17T07:21:26.259Z,11.64
2022-11-17T07:23:52.788Z,11.72
2022-11-17T07:26:19.363Z,11.78
2022-11-17T07:28:45.870Z,11.88
2022-11-17T07:31:12.369Z,11.89
2022-11-17T07:33:38.891Z,11.96
2022-11-17T07:36:07.909Z,12.00
2022-11-17T07:38:35.823Z,12.04
2022-11-17T07:41:03.354Z,12.04
2022-11-17T07:43:30.190Z,12.09
2022-11-17T07:45:57.042Z,12.11
2022-11-17T07:48:23.788Z,12.15
2022-11-17T07:50:50.813Z,12.32
2022-11-17T07:53:17.345Z,12.33
2022-11-17T07:55:43.933Z,12.52
2022-11-17T07:58:11.444Z,12.73
2022-11-17T08:00:38.354Z,13.20
2022-11-17T08:03:05.473Z,13.59
2022-11-17T08:05:39.917Z,13.91
2022-11-17T08:08:09.981Z,14.55
2022-11-17T08:10:36.722Z,14.96
2022-11-17T08:13:03.518Z,14.96
2022-11-17T08:15:30.630Z,15.07
2022-11-17T08:17:59.493Z,14.97
2022-11-17T08:20:28.698Z,15.71
2022-11-17T08:22:56.122Z,15.65
2022-11-17T08:25:25.783Z,15.07
2022-11-17T08:27:57.927Z,14.89
2022-11-17T08:30:25.416Z,15.33
2022-11-17T08:32:53.463Z,14.87
2022-11-17T08:35:24.962Z,14.10
2022-11-17T08:37:52.267Z,13.68
2022-11-17T08:40:19.843Z,13.32
2022-11-17T08:42:46.975Z,13.02
2022-11-17T08:45:14.325Z,12.98
2022-11-17T08:47:40.895Z,13.01
2022-11-17T08:50:07.920Z,13.33
2022-11-17T08:52:34.519Z,13.87
2022-11-17T08:55:02.136Z,14.63
2022-11-17T08:57:32.512Z,15.29
2022-11-17T08:59:59.430Z,16.55
2022-11-17T09:02:26.491Z,16.95
2022-11-17T09:04:53.116Z,16.69
2022-11-17T09:07:19.726Z,15.74
2022-11-17T09:09:46.426Z,15.80
2022-11-17T09:12:13.051Z,15.24
2022-11-17T09:14:39.629Z,15.32
2022-11-17T09:17:06.668Z,15.32
2022-11-17T09:19:33.245Z,15.62
2022-11-17T09:21:59.953Z,15.63
2022-11-17T09:24:26.765Z,16.13
2022-11-17T09:26:54.698Z,15.68
2022-11-17T09:29:21.883Z,15.50
2022-11-17T09:31:48.555Z,15.28
2022-11-17T09:34:16.365Z,15.25
2022-11-17T09:36:42.971Z,15.22
2022-11-17T09:39:09.530Z,15.25
2022-11-17T09:41:42.142Z,15.17
2022-11-17T09:44:11.653Z,15.13
2022-11-17T09:46:56.347Z,15.22
2022-11-17T09:49:41.151Z,15.33
2022-11-17T09:52:18.458Z,15.61
2022-11-17T09:54:50.872Z,15.28
2022-11-17T09:57:42.252Z,15.05
2022-11-17T10:00:20.160Z,15.06
2022-11-17T10:02:47.877Z,14.95
2022-11-17T10:05:28.558Z,15.02
2022-11-17T10:07:59.913Z,14.98
2022-11-17T10:10:38.412Z,15.04
2022-11-17T10:13:11.814Z,14.96
2022-11-17T10:15:45.839Z,15.01
2022-11-17T10:18:14.367Z,15.02
2022-11-17T10:20:42.773Z,15.14
2022-11-17T10:23:15.190Z,15.29
2022-11-17T10:25:44.613Z,15.50
2022-11-17T10:28:32.309Z,15.51
2022-11-17T10:31:00.763Z,15.60
2022-11-17T10:33:45.640Z,15.70
2022-11-17T10:36:20.378Z,15.78
2022-11-17T10:38:49.838Z,15.84
2022-11-17T10:41:20.977Z,15.90
2022-11-17T10:44:06.470Z,16.03
2022-11-17T10:46:41.731Z,16.00
2022-11-17T10:49:24.848Z,16.15
2022-11-17T10:52:04.650Z,16.14
2022-11-17T10:54:31.159Z,16.34
2022-11-17T10:57:00.547Z,16.47
2022-11-17T10:59:56.445Z,16.44
2022-11-17T11:02:35.078Z,16.29
2022-11-17T11:05:21.301Z,16.28
2022-11-17T11:07:48.320Z,16.34
2022-11-17T11:10:18.656Z,16.35
2022-11-17T11:12:54.074Z,16.41
2022-11-17T11:15:26.903Z,16.43
2022-11-17T11:17:53.477Z,16.44
2022-11-17T11:20:52.364Z,16.54
2022-11-17T11:23:37.025Z,16.66
2022-11-17T11:26:34.536Z,16.97
2022-11-17T11:29:40.210Z,17.10
2022-11-17T11:32:14.594Z,17.04
2022-11-17T11:34:47.070Z,17.31
2022-11-17T11:37:15.557Z,17.69
2022-11-17T11:40:32.032Z,17.34
2022-11-17T11:43:05.010Z,17.60
2022-11-17T11:46:13.863Z,17.27
2022-11-17T11:48:41.191Z,16.99
2022-11-17T11:51:13.724Z,16.81
2022-11-17T11:53:56.896Z,16.70
2022-11-17T11:56:35.770Z,16.61
2022-11-17T11:59:17.569Z,16.63
2022-11-17T12:01:49.255Z,16.51
2022-11-17T12:04:37.377Z,16.42
2022-11-17T12:07:19.182Z,16.29
2022-11-17T12:10:14.371Z,16.16
2022-11-17T12:12:44.680Z,16.39
2022-11-17T12:15:20.046Z,16.36
2022-11-17T12:17:52.406Z,16.75
2022-11-17T12:20:31.262Z,16.65
2022-11-17T12:23:01.161Z,16.53
2022-11-17T12:25:30.543Z,16.47
2022-11-17T12:27:57.435Z,16.37
2022-11-17T12:30:33.155Z,16.72
2022-11-17T12:33:08.471Z,16.66
2022-11-17T12:35:37.096Z,16.84
2022-11-17T12:38:15.538Z,16.93
2022-11-17T12:40:49.803Z,17.10
2022-11-17T12:43:16.397Z,17.00
2022-11-17T12:45:58.022Z,16.84
2022-11-17T12:48:35.145Z,16.84
2022-11-17T12:51:07.947Z,16.55
2022-11-17T12:53:56.469Z,16.30
2022-11-17T12:56:58.272Z,16.19
2022-11-17T13:00:01.642Z,16.31
2022-11-17T13:02:56.081Z,16.18
2022-11-17T13:05:25.933Z,16.08
2022-11-17T13:08:09.654Z,15.96
2022-11-17T13:10:36.157Z,15.89
2022-11-17T13:13:09.532Z,15.94
2022-11-17T13:15:37.013Z,15.98
2022-11-17T13:18:10.007Z,16.11
2022-11-17T13:20:39.497Z,16.20
2022-11-17T13:23:18.326Z,16.21
2022-11-17T13:25:45.093Z,16.24
2022-11-17T13:28:32.182Z,16.13
2022-11-17T13:31:00.149Z,16.26
2022-11-17T13:33:27.888Z,16.09
2022-11-17T13:36:16.307Z,16.03
2022-11-17T13:38:51.862Z,15.87
2022-11-17T13:41:20.650Z,15.62
2022-11-17T13:43:48.860Z,15.57
2022-11-17T13:46:15.411Z,15.48
2022-11-17T13:48:44.481Z,15.44
2022-11-17T13:51:20.312Z,15.53
2022-11-17T13:53:50.876Z,15.66
2022-11-17T13:56:30.531Z,15.70
2022-11-17T13:58:58.791Z,15.70
2022-11-17T14:01:31.201Z,15.76
2022-11-17T14:04:21.904Z,15.69
2022-11-17T14:07:00.655Z,15.57
2022-11-17T14:09:29.994Z,15.52
2022-11-17T14:11:58.537Z,15.62
2022-11-17T14:14:36.280Z,15.64
2022-11-17T14:17:12.841Z,15.69
2022-11-17T14:19:39.798Z,15.63
2022-11-17T14:22:09.012Z,15.57
2022-11-17T14:24:36.653Z,15.47
2022-11-17T14:27:11.996Z,15.46
2022-11-17T14:29:38.506Z,15.46
2022-11-17T14:32:05.143Z,15.45
2022-11-17T14:34:31.639Z,15.36
2022-11-17T14:36:58.371Z,15.28
2022-11-17T14:39:24.896Z,15.24
2022-11-17T14:41:51.521Z,15.19
2022-11-17T14:44:18.124Z,15.15
2022-11-17T14:46:44.876Z,14.99
2022-11-17T14:49:11.438Z,15.01
2022-11-17T14:51:37.960Z,15.07
2022-11-17T14:54:04.507Z,15.06
2022-11-17T14:56:30.890Z,14.99
2022-11-17T14:58:58.916Z,14.98
2022-11-17T15:01:28.715Z,15.09
2022-11-17T15:03:56.985Z,15.05
2022-11-17T15:06:24.365Z,15.02
2022-11-17T15:08:58.891Z,14.97
2022-11-17T15:11:27.330Z,14.85
2022-11-17T15:13:53.908Z,14.89
2022-11-17T15:16:20.913Z,14.83
2022-11-17T15:18:48.279Z,14.61
2022-11-17T15:21:16.320Z,14.56
2022-11-17T15:23:43.726Z,14.53
2022-11-17T15:26:15.616Z,14.36
2022-11-17T15:28:42.726Z,14.27
2022-11-17T15:31:17.495Z,14.19
2022-11-17T15:33:45.802Z,14.08
2022-11-17T15:36:14.775Z,13.97
2022-11-17T15:38:42.285Z,13.91
2022-11-17T15:41:11.119Z,13.93
2022-11-17T15:43:39.190Z,13.76
2022-11-17T15:46:07.472Z,13.64
2022-11-17T15:48:38.725Z,13.62
2022-11-17T15:51:05.736Z,13.45
2022-11-17T15:53:34.423Z,13.52
2022-11-17T15:56:08.256Z,13.50
2022-11-17T15:58:35.008Z,13.49
2022-11-17T16:01:14.917Z,13.42
2022-11-17T16:03:44.072Z,13.41
2022-11-17T16:06:12.044Z,13.39
2022-11-17T16:08:39.280Z,13.31
2022-11-17T16:11:06.857Z,13.21
2022-11-17T16:13:33.814Z,13.05
2022-11-17T16:16:00.356Z,12.98
2022-11-17T16:18:26.843Z,12.95
2022-11-17T16:20:53.391Z,12.99
2022-11-17T16:23:20.336Z,12.86
2022-11-17T16:25:48.150Z,12.87
2022-11-17T16:28:20.950Z,12.96
2022-11-17T16:30:47.481Z,13.05
2022-11-17T16:33:15.179Z,12.78
2022-11-17T16:35:41.845Z,12.54
2022-11-17T16:38:14.251Z,12.45
2022-11-17T16:40:41.248Z,12.25
2022-11-17T16:43:10.811Z,12.13
2022-11-17T16:45:45.406Z,12.01
2022-11-17T16:48:12.841Z,11.91
2022-11-17T16:50:40.587Z,11.81
2022-11-17T16:53:07.022Z,11.69
2022-11-17T16:55:37.880Z,11.78
2022-11-17T16:58:05.701Z,11.85
2022-11-17T17:00:34.780Z,11.85
2022-11-17T17:03:02.075Z,11.87
2022-11-17T17:05:31.807Z,11.94
2022-11-17T17:07:58.260Z,11.94
2022-11-17T17:10:24.951Z,11.93
2022-11-17T17:12:52.015Z,11.99
2022-11-17T17:15:18.624Z,11.90
2022-11-17T17:17:45.074Z,11.87
2022-11-17T17:20:11.924Z,11.91
2022-11-17T17:22:38.387Z,11.87
2022-11-17T17:25:05.355Z,11.92
2022-11-17T17:27:31.939Z,11.94
2022-11-17T17:29:58.476Z,11.94
2022-11-17T17:32:24.903Z,11.91
2022-11-17T17:34:51.650Z,11.94
2022-11-17T17:37:18.230Z,11.95
2022-11-17T17:39:44.683Z,12.04
2022-11-17T17:42:12.134Z,11.87
2022-11-17T17:44:38.561Z,11.91
2022-11-17T17:47:05.075Z,11.99
2022-11-17T17:49:31.513Z,12.04
2022-11-17T17:51:57.904Z,12.23
2022-11-17T17:54:25.163Z,12.32
2022-11-17T17:56:51.635Z,12.09
2022-11-17T17:59:19.044Z,11.98
2022-11-17T18:01:47.386Z,11.90
2022-11-17T18:04:16.277Z,11.83
2022-11-17T18:06:46.024Z,11.88
2022-11-17T18:09:14.611Z,11.75
2022-11-17T18:11:49.372Z,11.79
2022-11-17T18:14:20.303Z,11.69
2022-11-17T18:16:46.755Z,11.63
2022-11-17T18:19:14.418Z,11.36
2022-11-17T18:21:41.204Z,11.15
2022-11-17T18:24:07.682Z,11.03
2022-11-17T18:26:36.019Z,11.04
2022-11-17T18:29:05.893Z,11.01
2022-11-17T18:31:33.991Z,10.93
2022-11-17T18:34:13.177Z,10.84
2022-11-17T18:36:39.609Z,10.85
2022-11-17T18:39:06.142Z,10.73
2022-11-17T18:41:33.924Z,10.73
2022-11-17T18:44:01.175Z,10.71
2022-11-17T18:46:30.529Z,10.71
2022-11-17T18:48:57.642Z,10.68
2022-11-17T18:51:26.313Z,10.79
2022-11-17T18:53:54.597Z,10.84
2022-11-17T18:56:26.430Z,10.87
2022-11-17T18:58:53.236Z,10.83
2022-11-17T19:01:22.338Z,10.79
2022-11-17T19:03:52.058Z,10.79
2022-11-17T19:06:20.102Z,10.82
2022-11-17T19:08:48.091Z,10.87
2022-11-17T19:11:16.370Z,10.74
2022-11-17T19:13:43.510Z,10.80
2022-11-17T19:16:24.719Z,10.88
2022-11-17T19:18:53.745Z,10.88
2022-11-17T19:21:31.818Z,10.78
2022-11-17T19:24:00.991Z,10.81
2022-11-17T19:26:29.686Z,10.79
2022-11-17T19:28:58.079Z,10.84
2022-11-17T19:31:24.985Z,10.83
2022-11-17T19:33:51.781Z,10.79
2022-11-17T19:36:20.919Z,10.72
2022-11-17T19:38:49.930Z,10.66
2022-11-17T19:41:28.210Z,10.67
2022-11-17T19:43:56.785Z,10.76
2022-11-17T19:46:25.147Z,10.67
2022-11-17T19:48:51.741Z,10.74
2022-11-17T19:51:24.040Z,10.71
2022-11-17T19:53:52.908Z,10.72
2022-11-17T19:56:20.565Z,10.79
2022-11-17T19:58:48.037Z,10.71
2022-11-17T20:01:17.221Z,10.76
2022-11-17T20:03:44.730Z,10.72
2022-11-17T20:06:13.206Z,10.76
2022-11-17T20:08:39.942Z,10.87
2022-11-17T20:11:10.400Z,10.82
2022-11-17T20:13:37.379Z,10.71
2022-11-17T20:16:11.453Z,10.71
2022-11-17T20:18:38.618Z,10.77
2022-11-17T20:21:06.372Z,10.80
2022-11-17T20:23:37.009Z,10.75
2022-11-17T20:26:08.602Z,10.81
2022-11-17T20:28:36.638Z,10.73
2022-11-17T20:31:09.913Z,10.74
2022-11-17T20:33:39.931Z,10.72
2022-11-17T20:36:08.473Z,10.76
2022-11-17T20:38:36.080Z,10.77
2022-11-17T20:41:03.709Z,10.91
2022-11-17T20:43:30.786Z,10.92
2022-11-17T20:45:57.831Z,10.95
2022-11-17T20:48:25.032Z,10.82
2022-11-17T20:51:03.074Z,10.75
2022-11-17T20:53:29.989Z,10.83
2022-11-17T20:55:57.839Z,10.79
2022-11-17T20:58:25.026Z,10.79
2022-11-17T21:00:52.156Z,10.88
2022-11-17T21:03:18.881Z,10.80
2022-11-17T21:05:59.099Z,10.92
2022-11-17T21:08:27.645Z,10.81
2022-11-17T21:10:55.910Z,10.70
2022-11-17T21:13:22.484Z,10.71
2022-11-17T21:15:59.585Z,10.71
2022-11-17T21:18:26.101Z,10.59
2022-11-17T21:20:56.147Z,10.41
2022-11-17T21:23:22.611Z,10.49
2022-11-17T21:25:49.000Z,10.43
2022-11-17T21:28:15.390Z,10.43
2022-11-17T21:30:41.947Z,10.43
2022-11-17T21:33:08.389Z,10.38
2022-11-17T21:35:34.917Z,10.27
2022-11-17T21:38:01.518Z,10.27
2022-11-17T21:40:27.919Z,10.37
2022-11-17T21:42:54.334Z,10.30
2022-11-17T21:45:20.752Z,10.31
2022-11-17T21:47:47.139Z,10.43
2022-11-17T21:50:13.569Z,10.38
2022-11-17T21:52:40.019Z,10.37
2022-11-17T21:55:07.091Z,10.42
2022-11-17T21:57:33.526Z,10.40
2022-11-17T21:59:59.946Z,10.40
2022-11-17T22:02:26.404Z,10.55
2022-11-17T22:04:52.875Z,10.47
2022-11-17T22:07:19.344Z,10.28
2022-11-17T22:09:45.763Z,10.34
2022-11-17T22:12:12.150Z,10.26
2022-11-17T22:14:38.640Z,10.21
2022-11-17T22:17:05.136Z,10.36
2022-11-17T22:19:36.547Z,10.36
2022-11-17T22:22:02.963Z,10.37
2022-11-17T22:24:29.432Z,10.28
2022-11-17T22:26:55.944Z,10.31
2022-11-17T22:29:22.610Z,10.37
2022-11-17T22:31:50.073Z,10.39
2022-11-17T22:34:17.218Z,10.36
2022-11-17T22:36:43.745Z,10.28
2022-11-17T22:39:10.215Z,10.25
2022-11-17T22:41:36.756Z,10.29
2022-11-17T22:44:03.311Z,10.26
2022-11-17T22:46:29.823Z,10.31
2022-11-17T22:48:56.588Z,10.23
2022-11-17T22:51:42.930Z,10.23
2022-11-17T22:54:09.676Z,10.04
2022-11-17T22:56:36.368Z,10.07
2022-11-17T22:59:02.832Z,10.07
2022-11-17T23:01:29.423Z,10.17
2022-11-17T23:03:56.052Z,10.19
2022-11-17T23:06:22.803Z,10.24
2022-11-17T23:08:49.314Z,10.26
2022-11-17T23:11:35.914Z,10.14
2022-11-17T23:14:02.506Z,10.17
2022-11-17T23:16:29.046Z,10.34
2022-11-17T23:18:56.089Z,10.28
2022-11-17T23:21:23.280Z,10.23
2022-11-17T23:23:49.790Z,10.19
2022-11-17T23:26:16.439Z,10.17
2022-11-17T23:28:43.090Z,10.23
2022-11-17T23:31:14.957Z,10.34
2022-11-17T23:33:48.088Z,10.31
2022-11-17T23:36:19.966Z,10.30
2022-11-17T23:38:47.529Z,10.32
2022-11-17T23:41:15.969Z,10.41
2022-11-17T23:43:42.470Z,10.42
2022-11-17T23:46:17.800Z,10.38
2022-11-17T23:48:45.019Z,10.45
2022-11-17T23:51:17.235Z,10.45
2022-11-17T23:53:43.929Z,10.43
2022-11-17T23:56:11.014Z,10.40
2022-11-17T23:58:38.101Z,10.38
